createdAt,value
2019-04-20T00:00:09.084Z,100577.63
2019-04-20T00:02:37.958Z,100576.02
2019-04-20T00:05:09.389Z,100578.25
2019-04-20T00:07:40.098Z,100573.16
2019-04-20T00:10:15.553Z,100584.10
2019-04-20T00:13:01.095Z,100580.23
2019-04-20T00:15:15.738Z,100572.84
2019-04-20T00:17:54.252Z,100573.42
2019-04-20T00:20:24.171Z,100577.83
2019-04-20T00:22:59.791Z,100573.44
2019-04-20T00:26:04.477Z,100572.09
2019-04-20T00:28:45.995Z,100572.36
2019-04-20T00:31:17.807Z,100575.69
2019-04-20T00:33:42.760Z,100574.51
2019-04-20T00:36:05.393Z,100572.11
2019-04-20T00:38:45.539Z,100571.14
2019-04-20T00:41:12.526Z,100567.14
2019-04-20T00:43:42.537Z,100568.82
2019-04-20T00:46:23.117Z,100566.45
2019-04-20T00:48:54.011Z,100567.77
2019-04-20T00:51:35.147Z,100571.63
2019-04-20T00:53:55.246Z,100566.20
2019-04-20T00:56:24.486Z,100563.56
2019-04-20T00:59:08.329Z,100566.02
2019-04-20T01:01:47.656Z,100563.56
2019-04-20T01:04:20.485Z,100564.34
2019-04-20T01:07:06.221Z,100559.98
2019-04-20T01:09:43.386Z,100557.98
2019-04-20T01:12:22.471Z,100556.55
2019-04-20T01:14:55.131Z,100556.39
2019-04-20T01:17:20.303Z,100553.20
2019-04-20T01:19:54.140Z,100556.05
2019-04-20T01:22:27.323Z,100560.20
2019-04-20T01:25:09.751Z,100553.09
2019-04-20T01:27:51.576Z,100552.47
2019-04-20T01:30:17.432Z,100553.33
2019-04-20T01:32:55.133Z,100550.02
2019-04-20T01:35:31.826Z,100550.27
2019-04-20T01:38:07.318Z,100555.55
2019-04-20T01:40:19.089Z,100546.71
2019-04-20T01:42:51.063Z,100548.48
2019-04-20T01:45:27.937Z,100551.86
2019-04-20T01:47:57.789Z,100553.18
2019-04-20T01:50:30.055Z,100549.47
2019-04-20T01:53:11.536Z,100543.00
2019-04-20T01:55:53.113Z,100544.03
2019-04-20T01:58:52.130Z,100546.38
2019-04-20T02:00:55.851Z,100547.38
2019-04-20T02:03:38.597Z,100550.09
2019-04-20T02:06:16.734Z,100547.83
2019-04-20T02:08:46.195Z,100545.51
2019-04-20T02:11:24.148Z,100546.62
2019-04-20T02:13:56.660Z,100545.02
2019-04-20T02:16:31.784Z,100548.04
2019-04-20T02:19:15.533Z,100546.84
2019-04-20T02:21:55.687Z,100548.45
2019-04-20T02:24:13.144Z,100539.83
2019-04-20T02:26:45.096Z,100543.83
2019-04-20T02:29:39.840Z,100548.77
2019-04-20T02:32:23.326Z,100546.08
2019-04-20T02:35:07.231Z,100546.28
2019-04-20T02:40:45.199Z,100543.77
2019-04-20T02:45:40.428Z,100540.57
2019-04-20T02:48:13.411Z,100538.69
2019-04-20T02:50:59.530Z,100545.33
2019-04-20T02:53:30.292Z,100546.05
2019-04-20T02:55:58.565Z,100550.19
2019-04-20T02:58:23.574Z,100549.13
2019-04-20T03:00:57.150Z,100554.95
2019-04-20T03:03:14.336Z,100551.21
2019-04-20T03:05:45.445Z,100552.56
2019-04-20T03:08:22.262Z,100553.41
2019-04-20T03:11:11.710Z,100553.82
2019-04-20T03:13:36.695Z,100558.06
2019-04-20T03:16:08.695Z,100555.58
2019-04-20T03:18:39.849Z,100562.55
2019-04-20T03:21:21.068Z,100564.84
2019-04-20T03:23:50.015Z,100567.09
2019-04-20T03:26:21.406Z,100568.52
2019-04-20T03:29:02.576Z,100579.64
2019-04-20T03:32:28.874Z,100573.90
2019-04-20T03:35:00.547Z,100582.76
2019-04-20T03:37:17.192Z,100581.16
2019-04-20T03:39:40.528Z,100580.16
2019-04-20T03:41:58.712Z,100583.36
2019-04-20T03:44:32.919Z,100589.00
2019-04-20T03:47:08.038Z,100591.86
2019-04-20T03:50:01.002Z,100591.08
2019-04-20T03:52:32.845Z,100590.01
2019-04-20T03:55:07.278Z,100592.31
2019-04-20T03:57:49.812Z,100590.77
2019-04-20T04:00:26.448Z,100595.11
2019-04-20T04:03:16.573Z,100594.07
2019-04-20T04:05:37.034Z,100587.60
2019-04-20T04:08:03.167Z,100582.58
2019-04-20T04:10:34.039Z,100585.80
2019-04-20T04:13:14.939Z,100579.00
2019-04-20T04:15:55.597Z,100579.42
2019-04-20T04:18:29.742Z,100585.08
2019-04-20T04:21:01.963Z,100588.00
2019-04-20T04:23:44.524Z,100585.59
2019-04-20T04:26:17.490Z,100584.58
2019-04-20T04:28:53.835Z,100583.56
2019-04-20T04:31:35.039Z,100588.63
2019-04-20T04:34:17.689Z,100584.27
2019-04-20T04:36:40.593Z,100583.13
2019-04-20T04:39:15.476Z,100581.23
2019-04-20T04:41:58.213Z,100573.20
2019-04-20T04:44:18.012Z,100582.46
2019-04-20T04:46:44.600Z,100579.20
2019-04-20T04:49:16.506Z,100582.96
2019-04-20T04:51:53.520Z,100585.48
2019-04-20T04:54:28.817Z,100583.97
2019-04-20T04:56:54.608Z,100590.31
2019-04-20T04:59:29.672Z,100590.34
2019-04-20T05:02:03.293Z,100582.97
2019-04-20T05:04:58.425Z,100584.98
2019-04-20T05:07:24.453Z,100587.73
2019-04-20T05:09:44.385Z,100590.80
2019-04-20T05:12:20.338Z,100587.67
2019-04-20T05:14:58.078Z,100586.32
2019-04-20T05:17:39.421Z,100587.75
2019-04-20T05:20:13.387Z,100586.23
2019-04-20T05:22:51.001Z,100586.00
2019-04-20T05:25:36.656Z,100587.30
2019-04-20T05:28:20.797Z,100582.91
2019-04-20T05:30:52.548Z,100584.72
2019-04-20T05:33:31.493Z,100587.32
2019-04-20T05:36:15.745Z,100591.86
2019-04-20T05:38:46.999Z,100595.19
2019-04-20T05:41:20.091Z,100591.67
2019-04-20T05:43:53.410Z,100590.55
2019-04-20T05:46:35.343Z,100587.38
2019-04-20T05:49:13.474Z,100594.28
2019-04-20T05:51:39.682Z,100590.55
2019-04-20T05:54:13.579Z,100593.77
2019-04-20T05:56:51.274Z,100592.64
2019-04-20T05:59:23.851Z,100591.44
2019-04-20T06:01:58.887Z,100597.07
2019-04-20T06:04:41.313Z,100604.86
2019-04-20T06:07:08.287Z,100599.27
2019-04-20T06:09:40.945Z,100600.01
2019-04-20T06:12:31.809Z,100594.56
2019-04-20T06:17:52.717Z,100607.23
2019-04-20T06:20:33.952Z,100606.35
2019-04-20T06:23:15.936Z,100610.20
2019-04-20T06:25:52.975Z,100609.14
2019-04-20T06:28:12.825Z,100609.73
2019-04-20T06:30:50.846Z,100618.06
2019-04-20T06:36:38.600Z,100614.47
2019-04-20T06:39:17.204Z,100615.02
2019-04-20T06:42:05.015Z,100617.55
2019-04-20T06:44:24.678Z,100616.69
2019-04-20T06:46:59.129Z,100618.04
2019-04-20T06:52:00.414Z,100615.83
2019-04-20T06:54:39.464Z,100617.58
2019-04-20T06:57:22.552Z,100615.97
2019-04-20T06:59:47.667Z,100616.83
2019-04-20T07:02:22.231Z,100619.22
2019-04-20T07:07:26.614Z,100624.09
2019-04-20T07:12:27.324Z,100615.72
2019-04-20T07:14:55.277Z,100618.42
2019-04-20T07:17:49.103Z,100615.23
2019-04-20T07:20:15.491Z,100624.16
2019-04-20T07:23:14.517Z,100616.56
2019-04-20T07:25:38.769Z,100620.02
2019-04-20T07:28:05.881Z,100620.09
2019-04-20T07:30:41.846Z,100620.41
2019-04-20T07:33:20.023Z,100614.68
2019-04-20T07:35:49.218Z,100610.20
2019-04-20T07:40:50.377Z,100604.31
2019-04-20T07:43:25.577Z,100611.20
2019-04-20T07:45:55.751Z,100599.56
2019-04-20T07:48:26.431Z,100605.91
2019-04-20T07:50:55.533Z,100609.06
2019-04-20T07:53:29.399Z,100601.64
2019-04-20T07:56:12.597Z,100604.81
2019-04-20T07:59:31.480Z,100601.23
2019-04-20T08:02:19.180Z,100611.38
2019-04-20T08:04:55.080Z,100624.50
2019-04-20T08:07:17.521Z,100599.52
2019-04-20T08:09:57.421Z,100604.66
2019-04-20T08:12:58.381Z,100608.55
2019-04-20T08:15:34.045Z,100597.87
2019-04-20T08:17:56.394Z,100602.00
2019-04-20T08:20:29.926Z,100602.33
2019-04-20T08:23:00.120Z,100600.38
2019-04-20T08:25:23.773Z,100597.36
2019-04-20T08:28:06.479Z,100611.97
2019-04-20T08:31:00.912Z,100596.84
2019-04-20T08:33:45.178Z,100600.31
2019-04-20T08:36:18.156Z,100608.30
2019-04-20T08:39:12.717Z,100601.28
2019-04-20T08:41:48.622Z,100598.74
2019-04-20T08:44:42.723Z,100596.86
2019-04-20T08:47:05.164Z,100588.09
2019-04-20T08:49:29.666Z,100592.31
2019-04-20T08:54:26.409Z,100581.98
2019-04-20T08:56:51.721Z,100588.93
2019-04-20T08:59:19.197Z,100594.80
2019-04-20T09:01:51.077Z,100587.25
2019-04-20T09:04:36.045Z,100577.09
2019-04-20T09:07:05.596Z,100579.57
2019-04-20T09:09:52.549Z,100571.17
2019-04-20T09:12:26.757Z,100574.70
2019-04-20T09:14:44.532Z,100567.30
2019-04-20T09:17:27.264Z,100567.01
2019-04-20T09:20:01.486Z,100569.08
2019-04-20T09:22:49.457Z,100564.90
2019-04-20T09:25:57.718Z,100571.47
2019-04-20T09:28:11.772Z,100557.25
2019-04-20T09:30:51.950Z,100561.06
2019-04-20T09:33:47.037Z,100561.11
2019-04-20T09:36:17.875Z,100555.77
2019-04-20T09:39:08.573Z,100554.58
2019-04-20T09:41:58.114Z,100559.23
2019-04-20T09:44:04.641Z,100559.69
2019-04-20T09:46:44.183Z,100547.35
2019-04-20T09:49:20.136Z,100555.92
2019-04-20T09:52:00.187Z,100547.91
2019-04-20T09:54:35.862Z,100544.03
2019-04-20T09:57:09.163Z,100534.11
2019-04-20T09:59:52.868Z,100548.98
2019-04-20T10:02:13.715Z,100540.35
2019-04-20T10:04:39.925Z,100545.63
2019-04-20T10:07:14.510Z,100540.75
2019-04-20T10:09:46.912Z,100537.42
2019-04-20T10:12:15.734Z,100529.66
2019-04-20T10:14:46.849Z,100539.63
2019-04-20T10:17:18.118Z,100527.21
2019-04-20T10:19:51.380Z,100532.13
2019-04-20T10:22:29.017Z,100523.74
2019-04-20T10:25:02.644Z,100524.64
2019-04-20T10:27:41.923Z,100527.59
2019-04-20T10:30:14.603Z,100532.58
2019-04-20T10:32:50.912Z,100524.55
2019-04-20T10:35:23.876Z,100527.26
2019-04-20T10:38:03.346Z,100525.83
2019-04-20T10:40:48.683Z,100530.75
2019-04-20T10:43:10.221Z,100517.64
2019-04-20T10:45:41.423Z,100523.74
2019-04-20T10:48:13.145Z,100514.59
2019-04-20T10:50:47.204Z,100512.91
2019-04-20T10:53:19.696Z,100506.67
2019-04-20T10:55:55.704Z,100510.94
2019-04-20T10:58:27.563Z,100516.77
2019-04-20T11:01:05.783Z,100516.66
2019-04-20T11:03:44.831Z,100509.56
2019-04-20T11:06:34.443Z,100505.59
2019-04-20T11:09:11.873Z,100498.01
2019-04-20T11:11:48.462Z,100501.17
2019-04-20T11:14:26.373Z,100490.72
2019-04-20T11:16:54.141Z,100502.66
2019-04-20T11:19:25.366Z,100492.91
2019-04-20T11:22:00.377Z,100493.78
2019-04-20T11:24:38.990Z,100501.09
2019-04-20T11:27:12.486Z,100498.25
2019-04-20T11:29:44.487Z,100488.56
2019-04-20T11:32:17.908Z,100484.72
2019-04-20T11:34:51.234Z,100485.61
2019-04-20T11:37:22.148Z,100491.46
2019-04-20T11:39:55.235Z,100480.22
2019-04-20T11:42:25.945Z,100474.06
2019-04-20T11:44:58.722Z,100482.44
2019-04-20T11:47:29.676Z,100486.48
2019-04-20T11:50:01.823Z,100484.63
2019-04-20T11:52:39.909Z,100481.09
2019-04-20T11:55:10.517Z,100479.42
2019-04-20T11:57:43.027Z,100487.64
2019-04-20T12:00:29.888Z,100474.99
2019-04-20T12:03:24.795Z,100470.46
2019-04-20T12:05:53.812Z,100465.52
2019-04-20T12:08:23.375Z,100463.73
2019-04-20T12:10:59.513Z,100476.44
2019-04-20T12:13:31.030Z,100473.44
2019-04-20T12:16:05.581Z,100463.38
2019-04-20T12:18:38.256Z,100461.04
2019-04-20T12:21:14.791Z,100461.71
2019-04-20T12:23:46.406Z,100460.55
2019-04-20T12:26:18.805Z,100460.87
2019-04-20T12:28:52.212Z,100452.87
2019-04-20T12:31:27.636Z,100459.88
2019-04-20T12:33:58.649Z,100454.70
2019-04-20T12:36:30.234Z,100454.17
2019-04-20T12:39:04.075Z,100453.35
2019-04-20T12:41:45.339Z,100448.49
2019-04-20T12:44:12.231Z,100450.67
2019-04-20T12:46:47.814Z,100456.36
2019-04-20T12:49:23.479Z,100451.33
2019-04-20T12:52:00.237Z,100442.63
2019-04-20T12:54:29.270Z,100452.19
2019-04-20T12:57:00.505Z,100440.97
2019-04-20T12:59:42.255Z,100440.13
2019-04-20T13:02:13.847Z,100436.45
2019-04-20T13:04:45.781Z,100432.28
2019-04-20T13:07:17.660Z,100437.80
2019-04-20T13:09:54.802Z,100433.78
2019-04-20T13:12:34.258Z,100424.72
2019-04-20T13:15:26.591Z,100433.11
2019-04-20T13:18:01.395Z,100426.90
2019-04-20T13:20:37.108Z,100429.24
2019-04-20T13:23:17.219Z,100431.08
2019-04-20T13:25:48.861Z,100428.77
2019-04-20T13:28:23.170Z,100421.23
2019-04-20T13:30:57.844Z,100420.88
2019-04-20T13:33:29.544Z,100417.53
2019-04-20T13:36:04.062Z,100413.84
2019-04-20T13:38:38.189Z,100424.22
2019-04-20T13:41:09.396Z,100419.38
2019-04-20T13:43:41.612Z,100402.80
2019-04-20T13:46:25.034Z,100416.34
2019-04-20T13:48:58.853Z,100419.70
2019-04-20T13:51:32.881Z,100425.73
2019-04-20T13:54:14.985Z,100420.72
2019-04-20T13:56:48.026Z,100412.36
2019-04-20T13:59:32.539Z,100413.69
2019-04-20T14:02:10.877Z,100411.02
2019-04-20T14:04:48.722Z,100409.86
2019-04-20T14:07:20.280Z,100402.83
2019-04-20T14:09:53.477Z,100412.68
2019-04-20T14:12:35.397Z,100413.20
2019-04-20T14:15:02.829Z,100414.19
2019-04-20T14:17:37.218Z,100405.67
2019-04-20T14:20:15.779Z,100400.48
2019-04-20T14:22:47.259Z,100408.33
2019-04-20T14:25:22.887Z,100398.98
2019-04-20T14:28:05.204Z,100406.65
2019-04-20T14:30:37.243Z,100407.17
2019-04-20T14:33:12.898Z,100399.46
2019-04-20T14:35:48.322Z,100402.98
2019-04-20T14:38:22.286Z,100402.31
2019-04-20T14:41:00.110Z,100398.81
2019-04-20T14:43:38.105Z,100407.00
2019-04-20T14:46:10.918Z,100403.51
2019-04-20T14:48:46.879Z,100403.16
2019-04-20T14:51:27.831Z,100395.80
2019-04-20T14:54:05.933Z,100402.67
2019-04-20T14:56:47.620Z,100400.82
2019-04-20T14:59:27.476Z,100392.95
2019-04-20T15:02:02.822Z,100398.48
2019-04-20T15:04:34.711Z,100396.14
2019-04-20T15:07:06.695Z,100394.64
2019-04-20T15:09:42.549Z,100391.77
2019-04-20T15:12:15.004Z,100387.11
2019-04-20T15:14:50.397Z,100382.24
2019-04-20T15:17:23.561Z,100381.92
2019-04-20T15:19:59.240Z,100386.44
2019-04-20T15:22:31.825Z,100384.94
2019-04-20T15:25:03.845Z,100382.08
2019-04-20T15:27:46.004Z,100383.59
2019-04-20T15:30:18.315Z,100386.58
2019-04-20T15:32:49.344Z,100386.59
2019-04-20T15:35:21.494Z,100388.60
2019-04-20T15:37:53.251Z,100384.08
2019-04-20T15:40:24.058Z,100389.75
2019-04-20T15:43:09.545Z,100389.56
2019-04-20T15:45:31.975Z,100383.06
2019-04-20T15:48:06.017Z,100390.41
2019-04-20T15:50:38.070Z,100389.90
2019-04-20T15:53:09.413Z,100390.23
2019-04-20T15:55:42.013Z,100388.73
2019-04-20T15:58:16.407Z,100389.06
2019-04-20T16:00:47.214Z,100392.00
2019-04-20T16:03:23.322Z,100392.69
2019-04-20T16:05:58.969Z,100392.98
2019-04-20T16:08:38.755Z,100397.44
2019-04-20T16:11:11.378Z,100395.25
2019-04-20T16:13:50.007Z,100402.73
2019-04-20T16:16:19.610Z,100399.16
2019-04-20T16:18:51.020Z,100397.06
2019-04-20T16:21:29.447Z,100399.44
2019-04-20T16:24:01.142Z,100400.30
2019-04-20T16:26:37.830Z,100404.30
2019-04-20T16:29:08.807Z,100410.62
2019-04-20T16:31:40.555Z,100407.95
2019-04-20T16:34:14.244Z,100410.62
2019-04-20T16:36:46.368Z,100414.43
2019-04-20T16:39:18.372Z,100414.37
2019-04-20T16:41:50.465Z,100416.52
2019-04-20T16:44:23.144Z,100413.14
2019-04-20T16:46:56.448Z,100420.80
2019-04-20T16:49:27.057Z,100423.98
2019-04-20T16:52:00.886Z,100429.83
2019-04-20T16:54:32.137Z,100427.26
2019-04-20T16:57:04.770Z,100432.22
2019-04-20T16:59:46.523Z,100435.48
2019-04-20T17:02:14.178Z,100430.47
2019-04-20T17:04:45.026Z,100434.17
2019-04-20T17:07:20.544Z,100435.21
2019-04-20T17:09:55.960Z,100441.38
2019-04-20T17:12:27.955Z,100440.41
2019-04-20T17:15:01.365Z,100442.52
2019-04-20T17:17:35.821Z,100448.81
2019-04-20T17:20:11.427Z,100450.67
2019-04-20T17:22:50.769Z,100448.91
2019-04-20T17:25:27.945Z,100451.25
2019-04-20T17:28:17.351Z,100448.88
2019-04-20T17:30:59.234Z,100450.84
2019-04-20T17:33:50.682Z,100459.53
2019-04-20T17:36:18.558Z,100460.67
2019-04-20T17:38:51.711Z,100455.30
2019-04-20T17:41:43.163Z,100456.96
2019-04-20T17:44:09.667Z,100464.74
2019-04-20T17:46:44.360Z,100455.98
2019-04-20T17:49:14.467Z,100456.86
2019-04-20T17:51:57.996Z,100458.86
2019-04-20T17:54:25.566Z,100455.44
2019-04-20T17:57:00.344Z,100451.94
2019-04-20T17:59:39.993Z,100462.67
2019-04-20T18:02:51.195Z,100461.07
2019-04-20T18:05:46.548Z,100461.72
2019-04-20T18:08:15.500Z,100459.61
2019-04-20T18:10:41.875Z,100471.73
2019-04-20T18:13:07.069Z,100465.70
2019-04-20T18:15:48.880Z,100466.93
2019-04-20T18:18:39.075Z,100469.28
2019-04-20T18:21:03.199Z,100469.04
2019-04-20T18:23:39.914Z,100460.80
2019-04-20T18:26:28.775Z,100463.34
2019-04-20T18:29:03.589Z,100466.54
2019-04-20T18:31:17.578Z,100462.81
2019-04-20T18:33:50.621Z,100467.61
2019-04-20T18:36:30.804Z,100467.92
2019-04-20T18:39:02.629Z,100466.06
2019-04-20T18:41:38.489Z,100462.68
2019-04-20T18:44:04.510Z,100459.48
2019-04-20T18:47:00.328Z,100460.30
2019-04-20T18:49:24.063Z,100463.95
2019-04-20T18:51:39.962Z,100459.81
2019-04-20T18:54:22.379Z,100463.49
2019-04-20T18:56:56.778Z,100462.53
2019-04-20T18:59:31.783Z,100460.05
2019-04-20T19:02:12.754Z,100459.41
2019-04-20T19:04:39.703Z,100453.92
2019-04-20T19:07:11.923Z,100446.47
2019-04-20T19:09:45.478Z,100455.73
2019-04-20T19:12:16.645Z,100453.52
2019-04-20T19:15:28.174Z,100445.27
2019-04-20T19:17:58.111Z,100445.38
2019-04-20T19:20:26.919Z,100446.33
2019-04-20T19:22:58.020Z,100439.34
2019-04-20T19:25:36.778Z,100439.72
2019-04-20T19:28:07.069Z,100442.00
2019-04-20T19:30:46.836Z,100445.72
2019-04-20T19:33:30.430Z,100438.74
2019-04-20T19:35:53.005Z,100436.83
2019-04-20T19:38:25.889Z,100442.80
2019-04-20T19:41:00.136Z,100443.20
2019-04-20T19:43:33.801Z,100434.90
2019-04-20T19:46:44.292Z,100438.63
2019-04-20T19:48:48.685Z,100435.58
2019-04-20T19:51:28.399Z,100435.38
2019-04-20T19:53:59.610Z,100433.99
2019-04-20T19:56:31.100Z,100430.47
2019-04-20T19:59:05.112Z,100429.41
2019-04-20T20:01:22.146Z,100430.81
2019-04-20T20:04:02.855Z,100437.05
2019-04-20T20:06:42.673Z,100434.97
2019-04-20T20:09:09.402Z,100432.05
2019-04-20T20:11:42.368Z,100435.90
2019-04-20T20:14:12.719Z,100434.48
2019-04-20T20:17:06.698Z,100435.37
2019-04-20T20:19:37.196Z,100432.05
2019-04-20T20:22:07.863Z,100430.39
2019-04-20T20:24:27.277Z,100427.86
2019-04-20T20:27:04.239Z,100433.30
2019-04-20T20:29:38.366Z,100428.80
2019-04-20T20:32:17.733Z,100431.59
2019-04-20T20:34:44.065Z,100427.88
2019-04-20T20:37:18.165Z,100425.88
2019-04-20T20:39:59.713Z,100427.31
2019-04-20T20:42:29.374Z,100426.47
2019-04-20T20:45:07.002Z,100427.97
2019-04-20T20:48:00.462Z,100422.75
2019-04-20T20:50:21.238Z,100421.03
2019-04-20T20:52:49.662Z,100422.97
2019-04-20T20:55:24.580Z,100423.09
2019-04-20T20:57:53.596Z,100420.77
2019-04-20T21:00:24.146Z,100420.72
2019-04-20T21:02:53.776Z,100416.61
2019-04-20T21:05:19.695Z,100423.50
2019-04-20T21:07:51.342Z,100421.51
2019-04-20T21:10:30.033Z,100421.51
2019-04-20T21:12:58.971Z,100420.51
2019-04-20T21:15:28.270Z,100420.19
2019-04-20T21:18:20.815Z,100420.95
2019-04-20T21:20:52.010Z,100421.90
2019-04-20T21:23:20.110Z,100422.34
2019-04-20T21:25:43.508Z,100423.02
2019-04-20T21:28:10.856Z,100425.72
2019-04-20T21:30:45.514Z,100421.96
2019-04-20T21:33:15.017Z,100421.27
2019-04-20T21:35:48.890Z,100415.16
2019-04-20T21:38:19.033Z,100416.87
2019-04-20T21:41:02.118Z,100420.22
2019-04-20T21:43:29.914Z,100414.78
2019-04-20T21:46:01.247Z,100421.92
2019-04-20T21:48:49.174Z,100412.94
2019-04-20T21:51:16.602Z,100411.92
2019-04-20T21:53:35.876Z,100410.68
2019-04-20T21:56:08.084Z,100412.66
2019-04-20T21:58:44.385Z,100406.75
2019-04-20T22:01:22.194Z,100408.42
2019-04-20T22:03:45.069Z,100412.28
2019-04-20T22:06:16.286Z,100407.69
2019-04-20T22:08:54.578Z,100401.41
2019-04-20T22:11:23.961Z,100401.80
2019-04-20T22:13:54.841Z,100399.56
2019-04-20T22:16:34.332Z,100395.16
2019-04-20T22:19:14.598Z,100395.31
2019-04-20T22:21:48.272Z,100391.70
2019-04-20T22:24:13.593Z,100394.75
2019-04-20T22:26:50.260Z,100393.13
2019-04-20T22:29:08.047Z,100387.09
2019-04-20T22:31:40.232Z,100386.37
2019-04-20T22:34:15.359Z,100383.08
2019-04-20T22:36:48.152Z,100385.22
2019-04-20T22:39:18.709Z,100384.62
2019-04-20T22:41:56.344Z,100383.59
2019-04-20T22:44:26.600Z,100385.22
2019-04-20T22:46:56.308Z,100383.48
2019-04-20T22:49:47.254Z,100383.78
2019-04-20T22:52:18.505Z,100380.72
2019-04-20T22:54:48.955Z,100380.00
2019-04-20T22:57:21.585Z,100375.44
2019-04-20T22:59:50.512Z,100380.33
2019-04-20T23:02:13.544Z,100383.67
2019-04-20T23:04:48.700Z,100379.61
2019-04-20T23:07:20.850Z,100379.32
2019-04-20T23:09:54.976Z,100377.53
2019-04-20T23:12:26.926Z,100381.08
2019-04-20T23:14:56.588Z,100368.09
2019-04-20T23:17:36.548Z,100367.27
2019-04-20T23:20:02.910Z,100370.98
2019-04-20T23:22:36.827Z,100372.09
2019-04-20T23:25:05.385Z,100371.38
2019-04-20T23:27:37.280Z,100367.40
2019-04-20T23:30:20.240Z,100367.91
2019-04-20T23:32:44.192Z,100367.69
2019-04-20T23:35:18.500Z,100362.77
2019-04-20T23:37:48.431Z,100364.95
2019-04-20T23:40:19.633Z,100371.53
2019-04-20T23:42:55.812Z,100363.97
2019-04-20T23:45:42.726Z,100367.31
2019-04-20T23:48:18.365Z,100369.14
2019-04-20T23:51:05.029Z,100367.47
2019-04-20T23:53:39.208Z,100366.27
2019-04-20T23:55:54.398Z,100374.81
2019-04-20T23:58:26.385Z,100372.13
